createdAt,value
2017-08-05T00:00:00.715Z,16.85
2017-08-05T00:02:29.071Z,16.81
2017-08-05T00:04:57.415Z,16.92
2017-08-05T00:07:25.752Z,16.79
2017-08-05T00:09:54.096Z,16.92
2017-08-05T00:12:22.420Z,16.83
2017-08-05T00:14:51.029Z,16.79
2017-08-05T00:17:19.369Z,16.88
2017-08-05T00:19:47.703Z,16.76
2017-08-05T00:22:16.058Z,16.72
2017-08-05T00:24:44.392Z,16.81
2017-08-05T00:27:12.736Z,16.78
2017-08-05T00:29:41.054Z,16.92
2017-08-05T00:32:09.649Z,16.89
2017-08-05T00:34:37.989Z,16.84
2017-08-05T00:37:06.306Z,16.93
2017-08-05T00:39:34.640Z,16.89
2017-08-05T00:42:02.967Z,16.99
2017-08-05T00:44:31.309Z,17.05
2017-08-05T00:46:59.642Z,17.09
2017-08-05T00:49:27.993Z,17.08
2017-08-05T00:51:56.344Z,16.95
2017-08-05T00:54:24.690Z,16.93
2017-08-05T00:56:53.044Z,17.04
2017-08-05T00:59:21.407Z,17.06
2017-08-05T01:01:49.870Z,17.21
2017-08-05T01:04:18.208Z,17.21
2017-08-05T01:06:46.523Z,17.17
2017-08-05T01:09:14.871Z,17.19
2017-08-05T01:11:43.205Z,17.21
2017-08-05T01:14:11.560Z,17.25
2017-08-05T01:16:39.888Z,17.14
2017-08-05T01:19:08.239Z,17.11
2017-08-05T01:21:36.570Z,17.13
2017-08-05T01:24:04.926Z,17.10
2017-08-05T01:26:33.278Z,17.21
2017-08-05T01:29:01.592Z,17.06
2017-08-05T01:31:29.937Z,17.20
2017-08-05T01:33:58.253Z,17.27
2017-08-05T01:36:26.604Z,17.15
2017-08-05T01:38:54.920Z,17.13
2017-08-05T01:41:23.288Z,17.16
2017-08-05T01:43:51.639Z,17.15
2017-08-05T01:46:19.981Z,17.23
2017-08-05T01:48:48.441Z,17.13
2017-08-05T01:51:16.774Z,17.24
2017-08-05T01:53:45.382Z,17.37
2017-08-05T01:56:13.700Z,17.30
2017-08-05T01:58:42.036Z,17.14
2017-08-05T02:01:10.412Z,17.16
2017-08-05T02:03:38.757Z,17.22
2017-08-05T02:06:07.120Z,17.23
2017-08-05T02:08:35.461Z,17.12
2017-08-05T02:11:03.821Z,17.21
2017-08-05T02:13:32.155Z,17.19
2017-08-05T02:16:00.537Z,17.17
2017-08-05T02:18:28.879Z,17.15
2017-08-05T02:20:57.225Z,17.09
2017-08-05T02:23:25.558Z,17.13
2017-08-05T02:25:53.863Z,17.10
2017-08-05T02:28:22.219Z,17.14
2017-08-05T02:30:50.562Z,17.33
2017-08-05T02:33:18.907Z,17.35
2017-08-05T02:35:47.258Z,17.35
2017-08-05T02:38:15.622Z,17.31
2017-08-05T02:40:43.990Z,17.38
2017-08-05T02:43:12.328Z,17.42
2017-08-05T02:45:40.924Z,17.38
2017-08-05T02:48:09.268Z,17.26
2017-08-05T02:50:37.599Z,17.31
2017-08-05T02:53:06.021Z,17.09
2017-08-05T02:55:34.361Z,17.01
2017-08-05T02:58:02.720Z,17.01
2017-08-05T03:01:01.953Z,17.01
2017-08-05T03:03:30.341Z,17.11
2017-08-05T03:05:58.656Z,17.18
2017-08-05T03:08:27.009Z,17.09
2017-08-05T03:10:55.368Z,16.88
2017-08-05T03:13:23.691Z,16.85
2017-08-05T03:15:52.285Z,16.92
2017-08-05T03:18:20.603Z,16.98
2017-08-05T03:20:48.914Z,16.79
2017-08-05T03:23:17.255Z,16.93
2017-08-05T03:25:45.572Z,17.03
2017-08-05T03:28:13.924Z,17.05
2017-08-05T03:30:42.243Z,16.83
2017-08-05T03:33:10.572Z,16.84
2017-08-05T03:35:38.920Z,16.80
2017-08-05T03:38:07.240Z,16.82
2017-08-05T03:40:35.576Z,16.73
2017-08-05T03:43:03.900Z,16.71
2017-08-05T03:45:32.481Z,16.75
2017-08-05T03:48:00.804Z,16.84
2017-08-05T03:50:29.129Z,16.82
2017-08-05T03:52:57.494Z,16.74
2017-08-05T03:55:25.822Z,16.65
2017-08-05T03:57:54.170Z,16.46
2017-08-05T04:00:22.483Z,16.60
2017-08-05T04:02:51.087Z,16.53
2017-08-05T04:05:19.412Z,16.62
2017-08-05T04:07:47.748Z,16.61
2017-08-05T04:10:16.093Z,16.54
2017-08-05T04:12:44.425Z,16.66
2017-08-05T04:15:12.778Z,16.53
2017-08-05T04:17:41.116Z,16.64
2017-08-05T04:20:09.723Z,16.73
2017-08-05T04:22:38.056Z,16.72
2017-08-05T04:25:06.391Z,16.76
2017-08-05T04:27:34.740Z,16.58
2017-08-05T04:30:03.083Z,16.41
2017-08-05T04:32:32.102Z,16.55
2017-08-05T04:35:00.435Z,16.62
2017-08-05T04:37:28.798Z,16.64
2017-08-05T04:39:57.145Z,16.60
2017-08-05T04:42:25.474Z,16.69
2017-08-05T04:44:53.822Z,16.72
2017-08-05T04:47:22.156Z,16.63
2017-08-05T04:49:50.523Z,16.58
2017-08-05T04:52:18.856Z,16.66
2017-08-05T04:54:47.203Z,16.53
2017-08-05T04:57:16.485Z,16.42
2017-08-05T04:59:44.812Z,16.67
2017-08-05T05:02:13.163Z,16.54
2017-08-05T05:04:41.492Z,16.51
2017-08-05T05:07:09.888Z,16.41
2017-08-05T05:09:38.216Z,16.51
2017-08-05T05:12:06.563Z,16.71
2017-08-05T05:14:34.908Z,16.83
2017-08-05T05:17:03.246Z,16.94
2017-08-05T05:19:31.584Z,17.09
2017-08-05T05:22:00.680Z,17.19
2017-08-05T05:24:29.019Z,17.23
2017-08-05T05:26:58.063Z,17.32
2017-08-05T05:29:26.739Z,17.35
2017-08-05T05:31:55.073Z,17.36
2017-08-05T05:34:23.400Z,17.42
2017-08-05T05:36:52.513Z,17.45
2017-08-05T05:39:20.872Z,17.40
2017-08-05T05:41:49.217Z,17.41
2017-08-05T05:44:17.534Z,17.58
2017-08-05T05:46:46.635Z,17.53
2017-08-05T05:49:14.978Z,17.64
2017-08-05T05:51:43.341Z,17.61
2017-08-05T05:54:11.684Z,17.75
2017-08-05T05:56:39.990Z,17.74
2017-08-05T05:59:08.756Z,17.79
2017-08-05T06:01:37.095Z,17.82
2017-08-05T06:04:05.898Z,17.93
2017-08-05T06:06:34.220Z,17.97
2017-08-05T06:09:02.558Z,18.04
2017-08-05T06:11:31.673Z,18.08
2017-08-05T06:14:00.009Z,18.14
2017-08-05T06:16:28.342Z,18.19
2017-08-05T06:18:56.672Z,18.18
2017-08-05T06:21:25.023Z,18.34
2017-08-05T06:23:53.378Z,18.43
2017-08-05T06:26:22.347Z,18.51
2017-08-05T06:28:50.679Z,18.62
2017-08-05T06:31:19.025Z,18.81
2017-08-05T06:33:47.368Z,18.85
2017-08-05T06:36:15.697Z,19.01
2017-08-05T06:38:44.056Z,19.16
2017-08-05T06:41:12.419Z,19.28
2017-08-05T06:43:41.536Z,19.40
2017-08-05T06:46:09.892Z,19.50
2017-08-05T06:48:38.232Z,19.51
2017-08-05T06:51:06.576Z,19.66
2017-08-05T06:53:34.908Z,19.76
2017-08-05T06:56:03.740Z,19.85
2017-08-05T06:58:32.072Z,19.92
2017-08-05T07:01:00.428Z,19.94
2017-08-05T07:03:28.788Z,20.00
2017-08-05T07:05:57.327Z,20.12
2017-08-05T07:08:25.686Z,20.16
2017-08-05T07:10:54.018Z,20.19
2017-08-05T07:13:22.700Z,20.20
2017-08-05T07:15:51.042Z,20.23
2017-08-05T07:18:19.376Z,20.31
2017-08-05T07:20:47.733Z,20.35
2017-08-05T07:23:16.816Z,20.35
2017-08-05T07:25:45.153Z,20.34
2017-08-05T07:28:13.485Z,20.35
2017-08-05T07:30:42.649Z,20.29
2017-08-05T07:33:10.977Z,20.37
2017-08-05T07:35:39.313Z,20.48
2017-08-05T07:38:07.668Z,20.57
2017-08-05T07:40:35.999Z,20.67
2017-08-05T07:43:05.128Z,20.73
2017-08-05T07:45:33.471Z,20.78
2017-08-05T07:48:02.173Z,20.92
2017-08-05T07:50:30.505Z,21.02
2017-08-05T07:55:34.721Z,21.24
2017-08-05T07:58:03.098Z,21.36
2017-08-05T08:00:31.824Z,21.45
2017-08-05T08:03:00.180Z,21.57
2017-08-05T08:05:28.499Z,21.61
2017-08-05T08:07:56.890Z,21.74
2017-08-05T08:10:25.232Z,21.74
2017-08-05T08:12:53.584Z,21.84
2017-08-05T08:15:21.912Z,21.95
2017-08-05T08:17:50.500Z,22.07
2017-08-05T08:20:18.827Z,22.03
2017-08-05T08:22:47.178Z,22.10
2017-08-05T08:25:15.534Z,22.18
2017-08-05T08:27:43.861Z,22.21
2017-08-05T08:30:12.212Z,22.24
2017-08-05T08:32:41.310Z,22.27
2017-08-05T08:35:10.000Z,22.27
2017-08-05T08:37:38.326Z,22.25
2017-08-05T08:40:06.653Z,22.26
2017-08-05T08:42:35.764Z,22.24
2017-08-05T08:45:04.090Z,22.10
2017-08-05T08:47:32.422Z,21.96
2017-08-05T08:50:00.764Z,21.87
2017-08-05T08:52:29.140Z,21.87
2017-08-05T08:54:57.479Z,21.95
2017-08-05T08:57:25.836Z,21.96
2017-08-05T08:59:54.183Z,21.90
2017-08-05T09:02:22.525Z,21.83
2017-08-05T09:04:50.868Z,21.77
2017-08-05T09:07:19.201Z,21.78
2017-08-05T09:09:47.971Z,21.82
2017-08-05T09:12:16.352Z,21.85
2017-08-05T09:14:44.705Z,21.89
2017-08-05T09:17:13.051Z,21.86
2017-08-05T09:19:41.382Z,21.99
2017-08-05T09:22:09.755Z,22.10
2017-08-05T09:24:38.077Z,22.14
2017-08-05T09:27:06.892Z,22.19
2017-08-05T09:29:35.235Z,22.32
2017-08-05T09:32:03.580Z,22.28
2017-08-05T09:34:31.916Z,22.27
2017-08-05T09:37:00.257Z,22.25
2017-08-05T09:39:28.613Z,22.18
2017-08-05T09:41:56.944Z,22.16
2017-08-05T09:44:25.291Z,22.17
2017-08-05T09:46:53.654Z,22.21
2017-08-05T09:49:21.983Z,22.24
2017-08-05T09:51:50.320Z,22.19
2017-08-05T09:54:18.646Z,22.19
2017-08-05T09:56:47.021Z,22.25
2017-08-05T09:59:15.363Z,22.32
2017-08-05T10:01:43.709Z,22.29
2017-08-05T10:04:12.039Z,22.25
2017-08-05T10:06:40.376Z,22.27
2017-08-05T10:09:08.734Z,22.26
2017-08-05T10:11:37.081Z,22.32
2017-08-05T10:14:05.431Z,22.39
2017-08-05T10:16:33.818Z,22.39
2017-08-05T10:19:02.576Z,22.45
2017-08-05T10:21:30.919Z,22.47
2017-08-05T10:23:59.245Z,22.59
2017-08-05T10:26:27.613Z,22.75
2017-08-05T10:28:55.943Z,22.73
2017-08-05T10:31:24.289Z,22.77
2017-08-05T10:33:52.605Z,22.88
2017-08-05T10:36:21.235Z,22.90
2017-08-05T10:38:49.573Z,23.03
2017-08-05T10:41:17.900Z,23.05
2017-08-05T10:43:46.257Z,23.11
2017-08-05T10:46:14.586Z,23.16
2017-08-05T10:48:42.939Z,23.20
2017-08-05T10:51:11.699Z,23.31
2017-08-05T10:53:40.487Z,23.35
2017-08-05T10:56:08.864Z,23.40
2017-08-05T10:58:37.196Z,23.54
2017-08-05T11:01:05.545Z,23.58
2017-08-05T11:03:34.646Z,23.72
2017-08-05T11:06:02.994Z,23.88
2017-08-05T11:08:31.340Z,24.09
2017-08-05T11:11:00.098Z,24.25
2017-08-05T11:13:28.549Z,24.33
2017-08-05T11:15:56.889Z,24.50
2017-08-05T11:18:25.238Z,24.63
2017-08-05T11:20:53.571Z,24.61
2017-08-05T11:23:21.933Z,24.63
2017-08-05T11:25:50.246Z,24.58
2017-08-05T11:28:19.084Z,24.62
2017-08-05T11:30:47.400Z,24.66
2017-08-05T11:33:15.741Z,24.71
2017-08-05T11:35:44.132Z,24.80
2017-08-05T11:38:12.461Z,24.92
2017-08-05T11:40:40.847Z,24.98
2017-08-05T11:43:09.971Z,25.01
2017-08-05T11:45:38.644Z,25.06
2017-08-05T11:48:06.981Z,25.17
2017-08-05T11:50:35.318Z,25.24
2017-08-05T11:53:03.647Z,25.07
2017-08-05T11:55:31.978Z,24.92
2017-08-05T11:58:00.341Z,24.88
2017-08-05T12:00:28.697Z,24.96
2017-08-05T12:02:57.025Z,25.04
2017-08-05T12:05:25.374Z,25.14
2017-08-05T12:07:54.726Z,25.09
2017-08-05T12:10:23.084Z,25.16
2017-08-05T12:12:51.416Z,25.08
2017-08-05T12:15:20.121Z,25.08
2017-08-05T12:17:48.462Z,25.26
2017-08-05T12:20:17.910Z,25.24
2017-08-05T12:22:46.257Z,25.15
2017-08-05T12:25:14.593Z,25.24
2017-08-05T12:27:42.932Z,25.25
2017-08-05T12:30:11.342Z,25.32
2017-08-05T12:32:39.692Z,25.37
2017-08-05T12:35:08.032Z,25.39
2017-08-05T12:37:36.382Z,25.35
2017-08-05T12:40:04.739Z,25.16
2017-08-05T12:42:33.851Z,25.19
2017-08-05T12:45:02.205Z,25.03
2017-08-05T12:47:30.535Z,25.16
2017-08-05T12:49:59.288Z,25.18
2017-08-05T12:52:27.610Z,25.32
2017-08-05T12:54:55.962Z,25.32
2017-08-05T12:57:24.295Z,25.36
2017-08-05T12:59:52.605Z,25.37
2017-08-05T13:02:20.953Z,25.27
2017-08-05T13:04:49.283Z,25.35
2017-08-05T13:07:17.642Z,25.38
2017-08-05T13:09:46.011Z,25.25
2017-08-05T13:12:14.388Z,25.27
2017-08-05T13:14:42.718Z,25.26
2017-08-05T13:17:11.031Z,25.27
2017-08-05T13:19:39.463Z,25.56
2017-08-05T13:22:07.828Z,25.73
2017-08-05T13:24:36.203Z,25.84
2017-08-05T13:27:11.815Z,25.81
2017-08-05T13:29:47.083Z,25.73
2017-08-05T13:32:16.050Z,25.55
2017-08-05T13:34:44.798Z,25.33
2017-08-05T13:37:13.651Z,25.60
2017-08-05T13:39:47.850Z,25.57
2017-08-05T13:42:16.469Z,25.18
2017-08-05T13:44:46.659Z,25.20
2017-08-05T13:47:15.893Z,25.11
2017-08-05T13:49:44.256Z,25.02
2017-08-05T13:52:12.630Z,24.96
2017-08-05T13:54:40.981Z,24.94
2017-08-05T13:57:09.734Z,24.95
2017-08-05T13:59:38.077Z,24.79
2017-08-05T14:02:06.419Z,24.70
2017-08-05T14:04:35.169Z,24.77
2017-08-05T14:07:04.273Z,24.97
2017-08-05T14:09:32.604Z,24.95
2017-08-05T14:12:01.348Z,24.99
2017-08-05T14:14:32.744Z,24.99
2017-08-05T14:17:01.451Z,24.95
2017-08-05T14:19:29.780Z,25.01
2017-08-05T14:21:58.142Z,25.14
2017-08-05T14:24:26.543Z,25.02
2017-08-05T14:26:54.867Z,25.03
2017-08-05T14:29:23.228Z,24.85
2017-08-05T14:31:51.576Z,24.78
2017-08-05T14:34:20.172Z,24.66
2017-08-05T14:36:48.506Z,24.60
2017-08-05T14:39:17.144Z,24.57
2017-08-05T14:41:45.485Z,24.76
2017-08-05T14:44:13.876Z,24.93
2017-08-05T14:46:42.236Z,25.12
2017-08-05T14:49:11.352Z,25.30
2017-08-05T14:51:39.694Z,25.18
2017-08-05T14:54:08.041Z,25.21
2017-08-05T14:56:36.360Z,25.17
2017-08-05T14:59:05.470Z,25.06
2017-08-05T15:01:33.810Z,24.91
2017-08-05T15:04:02.167Z,24.79
2017-08-05T15:06:30.541Z,25.09
2017-08-05T15:08:58.865Z,25.36
2017-08-05T15:11:27.202Z,25.54
2017-08-05T15:13:55.944Z,25.74
2017-08-05T15:16:25.055Z,25.55
2017-08-05T15:18:53.387Z,25.17
2017-08-05T15:21:22.118Z,24.85
2017-08-05T15:23:50.440Z,24.66
2017-08-05T15:26:19.670Z,24.75
2017-08-05T15:28:48.000Z,24.70
2017-08-05T15:31:16.319Z,24.54
2017-08-05T15:33:44.678Z,24.53
2017-08-05T15:36:12.995Z,24.31
2017-08-05T15:38:41.369Z,24.14
2017-08-05T15:41:09.719Z,24.38
2017-08-05T15:43:38.039Z,24.67
2017-08-05T15:46:07.143Z,25.14
2017-08-05T15:48:35.469Z,25.52
2017-08-05T15:51:04.547Z,25.23
2017-08-05T15:53:32.881Z,25.11
2017-08-05T15:56:01.240Z,24.64
2017-08-05T15:58:29.593Z,24.52
2017-08-05T16:00:57.951Z,24.41
2017-08-05T16:03:26.331Z,24.13
2017-08-05T16:05:54.661Z,23.96
2017-08-05T16:08:23.400Z,23.68
2017-08-05T16:10:51.725Z,23.72
2017-08-05T16:13:20.549Z,23.83
2017-08-05T16:15:48.894Z,23.85
2017-08-05T16:18:17.218Z,23.82
2017-08-05T16:20:46.337Z,23.74
2017-08-05T16:23:14.656Z,23.58
2017-08-05T16:25:43.044Z,23.50
2017-08-05T16:28:11.387Z,23.52
2017-08-05T16:30:40.007Z,23.62
2017-08-05T16:33:08.344Z,23.36
2017-08-05T16:35:37.103Z,23.56
2017-08-05T16:38:06.863Z,23.53
2017-08-05T16:40:35.265Z,23.40
2017-08-05T16:43:03.608Z,23.38
2017-08-05T16:45:31.932Z,23.23
2017-08-05T16:48:00.286Z,23.25
2017-08-05T16:50:28.607Z,23.19
2017-08-05T16:52:57.709Z,23.27
2017-08-05T16:55:26.056Z,23.28
2017-08-05T16:57:54.405Z,23.34
2017-08-05T17:00:22.801Z,23.39
2017-08-05T17:02:51.135Z,23.48
2017-08-05T17:05:19.498Z,23.87
2017-08-05T17:07:48.612Z,24.08
2017-08-05T17:10:16.973Z,24.02
2017-08-05T17:12:45.331Z,23.96
2017-08-05T17:15:13.668Z,23.85
2017-08-05T17:17:42.014Z,23.87
2017-08-05T17:20:11.134Z,23.73
2017-08-05T17:22:39.484Z,23.58
2017-08-05T17:25:07.846Z,23.52
2017-08-05T17:27:36.192Z,23.32
2017-08-05T17:30:04.617Z,23.33
2017-08-05T17:32:32.951Z,23.27
2017-08-05T17:35:01.319Z,23.23
2017-08-05T17:37:29.692Z,23.18
2017-08-05T17:39:58.477Z,23.07
2017-08-05T17:42:26.806Z,23.09
2017-08-05T17:44:55.144Z,23.02
2017-08-05T17:47:23.492Z,23.05
2017-08-05T17:49:52.605Z,22.95
2017-08-05T17:52:21.993Z,23.00
2017-08-05T17:54:50.326Z,23.03
2017-08-05T17:57:18.749Z,23.03
2017-08-05T17:59:47.086Z,22.88
2017-08-05T18:02:15.421Z,22.83
2017-08-05T18:04:43.772Z,22.75
2017-08-05T18:07:12.115Z,22.82
2017-08-05T18:09:40.471Z,22.64
2017-08-05T18:12:08.831Z,22.62
2017-08-05T18:14:38.895Z,22.51
2017-08-05T18:17:07.245Z,22.42
2017-08-05T18:19:45.547Z,22.33
2017-08-05T18:22:13.890Z,22.22
2017-08-05T18:24:42.240Z,22.14
2017-08-05T18:27:10.607Z,22.17
2017-08-05T18:29:38.962Z,22.18
2017-08-05T18:32:07.670Z,22.14
2017-08-05T18:34:36.714Z,21.97
2017-08-05T18:37:05.047Z,22.00
2017-08-05T18:39:33.392Z,21.90
2017-08-05T18:42:01.711Z,21.78
2017-08-05T18:44:30.104Z,21.57
2017-08-05T18:46:58.476Z,21.35
2017-08-05T18:49:26.843Z,21.36
2017-08-05T18:51:55.200Z,21.31
2017-08-05T18:54:25.704Z,21.08
2017-08-05T18:56:54.919Z,20.88
2017-08-05T18:59:23.239Z,20.89
2017-08-05T19:01:51.619Z,20.68
2017-08-05T19:04:19.961Z,20.56
2017-08-05T19:06:48.313Z,20.46
2017-08-05T19:09:16.640Z,20.34
2017-08-05T19:11:44.999Z,20.46
2017-08-05T19:14:13.350Z,20.29
2017-08-05T19:16:49.440Z,20.36
2017-08-05T19:19:19.504Z,20.38
2017-08-05T19:21:47.833Z,20.37
2017-08-05T19:24:17.465Z,20.37
2017-08-05T19:26:47.543Z,20.33
2017-08-05T19:29:16.286Z,20.31
2017-08-05T19:31:44.634Z,20.35
2017-08-05T19:34:13.663Z,20.26
2017-08-05T19:36:42.917Z,20.27
2017-08-05T19:39:12.259Z,20.27
2017-08-05T19:41:40.608Z,20.31
2017-08-05T19:44:08.951Z,20.25
2017-08-05T19:46:37.704Z,20.09
2017-08-05T19:49:06.116Z,20.03
2017-08-05T19:51:34.456Z,19.94
2017-08-05T19:54:03.853Z,19.93
2017-08-05T19:56:32.188Z,19.79
2017-08-05T19:59:00.526Z,19.80
2017-08-05T20:01:28.874Z,19.66
2017-08-05T20:03:57.186Z,19.71
2017-08-05T20:06:26.001Z,19.62
2017-08-05T20:08:54.394Z,19.70
2017-08-05T20:11:23.097Z,19.52
2017-08-05T20:13:51.442Z,19.53
2017-08-05T20:16:19.783Z,19.59
2017-08-05T20:18:48.909Z,19.54
2017-08-05T20:21:17.258Z,19.52
2017-08-05T20:23:45.618Z,19.51
2017-08-05T20:26:13.938Z,19.55
2017-08-05T20:28:42.718Z,19.58
2017-08-05T20:31:11.042Z,19.51
2017-08-05T20:33:39.369Z,19.38
2017-08-05T20:36:09.251Z,19.28
2017-08-05T20:38:37.987Z,19.35
2017-08-05T20:41:07.113Z,19.37
2017-08-05T20:43:35.446Z,19.04
2017-08-05T20:46:04.099Z,19.10
2017-08-05T20:48:32.428Z,19.14
2017-08-05T20:51:00.745Z,19.07
2017-08-05T20:53:29.083Z,18.92
2017-08-05T20:55:57.421Z,19.05
2017-08-05T20:58:25.836Z,19.05
2017-08-05T21:00:54.165Z,18.99
2017-08-05T21:03:22.513Z,18.67
2017-08-05T21:05:50.855Z,18.72
2017-08-05T21:08:19.204Z,18.68
2017-08-05T21:10:47.563Z,18.77
2017-08-05T21:13:15.919Z,18.71
2017-08-05T21:15:44.287Z,18.55
2017-08-05T21:18:13.402Z,18.52
2017-08-05T21:20:41.755Z,18.42
2017-08-05T21:23:10.114Z,18.40
2017-08-05T21:25:38.463Z,18.07
2017-08-05T21:28:06.815Z,18.20
2017-08-05T21:30:35.145Z,18.20
2017-08-05T21:33:04.571Z,18.18
2017-08-05T21:35:33.261Z,18.25
2017-08-05T21:38:02.099Z,18.29
2017-08-05T21:40:30.972Z,17.93
2017-08-05T21:42:59.703Z,18.02
2017-08-05T21:45:28.616Z,17.98
2017-08-05T21:47:57.607Z,17.92
2017-08-05T21:50:27.333Z,17.91
2017-08-05T21:52:56.163Z,17.68
2017-08-05T21:55:24.487Z,17.86
2017-08-05T21:57:52.846Z,17.91
2017-08-05T22:00:21.585Z,17.91
2017-08-05T22:02:50.682Z,17.80
2017-08-05T22:05:19.020Z,17.68
2017-08-05T22:07:47.765Z,17.65
2017-08-05T22:10:16.096Z,17.51
2017-08-05T22:12:44.429Z,17.59
2017-08-05T22:15:12.804Z,17.37
2017-08-05T22:17:41.124Z,17.28
2017-08-05T22:20:10.182Z,17.30
2017-08-05T22:22:38.519Z,17.34
2017-08-05T22:25:07.334Z,17.20
2017-08-05T22:27:35.668Z,17.30
2017-08-05T22:30:04.029Z,17.16
2017-08-05T22:32:32.380Z,17.10
2017-08-05T22:35:01.479Z,17.13
2017-08-05T22:37:29.873Z,17.12
2017-08-05T22:39:58.205Z,16.95
2017-08-05T22:42:26.561Z,17.01
2017-08-05T22:44:54.892Z,16.83
2017-08-05T22:47:24.853Z,16.85
2017-08-05T22:49:53.216Z,16.83
2017-08-05T22:52:21.586Z,16.76
2017-08-05T22:54:49.946Z,16.79
2017-08-05T22:57:19.045Z,16.58
2017-08-05T22:59:47.374Z,16.77
2017-08-05T23:02:15.736Z,16.69
2017-08-05T23:04:44.071Z,16.68
2017-08-05T23:07:13.174Z,16.43
2017-08-05T23:09:41.506Z,16.46
2017-08-05T23:12:10.286Z,16.47
2017-08-05T23:14:38.615Z,16.46
2017-08-05T23:17:06.947Z,16.46
2017-08-05T23:19:35.692Z,16.36
2017-08-05T23:22:04.044Z,16.42
2017-08-05T23:24:32.397Z,16.37
2017-08-05T23:27:00.754Z,16.31
2017-08-05T23:29:29.116Z,16.13
2017-08-05T23:31:58.221Z,16.26
2017-08-05T23:34:26.561Z,16.11
2017-08-05T23:36:54.904Z,16.17
2017-08-05T23:39:23.229Z,16.16
2017-08-05T23:41:51.578Z,16.07
2017-08-05T23:44:19.925Z,15.86
2017-08-05T23:46:48.704Z,15.93
2017-08-05T23:49:17.054Z,15.75
2017-08-05T23:51:45.377Z,15.71
2017-08-05T23:54:13.735Z,15.85
2017-08-05T23:56:42.046Z,15.91
2017-08-05T23:59:10.381Z,15.86
